createdAt,value
2019-02-16T00:00:54.246Z,1003.66
2019-02-16T00:01:54.473Z,1003.67
2019-02-16T00:02:54.690Z,1003.69
2019-02-16T00:03:54.908Z,1003.68
2019-02-16T00:04:55.128Z,1003.68
2019-02-16T00:05:55.345Z,1003.68
2019-02-16T00:06:55.565Z,1003.69
2019-02-16T00:07:55.786Z,1003.67
2019-02-16T00:08:56.064Z,1003.67
2019-02-16T00:09:56.222Z,1003.64
2019-02-16T00:10:56.439Z,1003.64
2019-02-16T00:11:56.661Z,1003.64
2019-02-16T00:12:56.875Z,1003.61
2019-02-16T00:13:57.099Z,1003.65
2019-02-16T00:14:57.367Z,1003.59
2019-02-16T00:15:57.537Z,1003.58
2019-02-16T00:16:57.760Z,1003.59
2019-02-16T00:17:57.979Z,1003.57
2019-02-16T00:18:58.198Z,1003.58
2019-02-16T00:19:58.418Z,1003.57
2019-02-16T00:21:04.079Z,1003.55
2019-02-16T00:21:58.858Z,1003.54
2019-02-16T00:22:59.080Z,1003.55
2019-02-16T00:23:59.299Z,1003.58
2019-02-16T00:24:59.518Z,1003.54
2019-02-16T00:25:59.741Z,1003.54
2019-02-16T00:26:59.966Z,1003.55
2019-02-16T00:28:00.183Z,1003.55
2019-02-16T00:29:00.404Z,1003.53
2019-02-16T00:30:00.625Z,1003.55
2019-02-16T00:31:00.844Z,1003.58
2019-02-16T00:32:01.065Z,1003.54
2019-02-16T00:33:01.286Z,1003.54
2019-02-16T00:34:01.506Z,1003.53
2019-02-16T00:35:01.727Z,1003.50
2019-02-16T00:36:01.943Z,1003.47
2019-02-16T00:37:02.161Z,1003.48
2019-02-16T00:38:02.381Z,1003.47
2019-02-16T00:39:02.596Z,1003.48
2019-02-16T00:40:02.818Z,1003.48
2019-02-16T00:41:03.036Z,1003.46
2019-02-16T00:42:03.248Z,1003.45
2019-02-16T00:43:03.470Z,1003.43
2019-02-16T00:44:03.691Z,1003.45
2019-02-16T00:45:03.912Z,1003.42
2019-02-16T00:46:04.135Z,1003.42
2019-02-16T00:47:04.357Z,1003.44
2019-02-16T00:48:04.574Z,1003.49
2019-02-16T00:49:04.790Z,1003.46
2019-02-16T00:50:05.008Z,1003.45
2019-02-16T00:51:13.150Z,1003.42
2019-02-16T00:52:05.447Z,1003.45
2019-02-16T00:53:05.665Z,1003.43
2019-02-16T00:54:05.889Z,1003.45
2019-02-16T00:55:06.107Z,1003.47
2019-02-16T00:56:06.326Z,1003.46
2019-02-16T00:57:06.546Z,1003.47
2019-02-16T00:58:06.765Z,1003.47
2019-02-16T00:59:06.986Z,1003.48
2019-02-16T01:00:07.205Z,1003.47
2019-02-16T01:01:07.426Z,1003.46
2019-02-16T01:02:07.643Z,1003.45
2019-02-16T01:03:07.866Z,1003.50
2019-02-16T01:04:08.088Z,1003.46
2019-02-16T01:05:08.328Z,1003.50
2019-02-16T01:06:08.523Z,1003.46
2019-02-16T01:07:08.742Z,1003.48
2019-02-16T01:08:08.962Z,1003.49
2019-02-16T01:09:09.186Z,1003.47
2019-02-16T01:10:09.406Z,1003.47
2019-02-16T01:11:09.626Z,1003.46
2019-02-16T01:12:09.846Z,1003.46
2019-02-16T01:13:10.066Z,1003.48
2019-02-16T01:14:10.283Z,1003.48
2019-02-16T01:15:10.508Z,1003.48
2019-02-16T01:16:10.733Z,1003.45
2019-02-16T01:17:10.948Z,1003.46
2019-02-16T01:18:11.167Z,1003.47
2019-02-16T01:19:11.392Z,1003.47
2019-02-16T01:20:11.606Z,1003.41
2019-02-16T01:21:11.822Z,1003.48
2019-02-16T01:22:12.042Z,1003.40
2019-02-16T01:23:12.264Z,1003.44
2019-02-16T01:24:12.483Z,1003.42
2019-02-16T01:25:12.701Z,1003.49
2019-02-16T01:26:12.925Z,1003.46
2019-02-16T01:27:13.144Z,1003.42
2019-02-16T01:28:13.351Z,1003.41
2019-02-16T01:29:13.572Z,1003.42
2019-02-16T01:30:13.794Z,1003.43
2019-02-16T01:31:14.010Z,1003.40
2019-02-16T01:32:14.229Z,1003.42
2019-02-16T01:33:14.449Z,1003.40
2019-02-16T01:34:14.666Z,1003.41
2019-02-16T01:35:14.888Z,1003.38
2019-02-16T01:36:15.109Z,1003.39
2019-02-16T01:37:15.329Z,1003.32
2019-02-16T01:38:15.543Z,1003.34
2019-02-16T01:39:15.763Z,1003.31
2019-02-16T01:40:15.981Z,1003.33
2019-02-16T01:41:16.197Z,1003.30
2019-02-16T01:42:16.415Z,1003.25
2019-02-16T01:43:16.631Z,1003.28
2019-02-16T01:44:16.850Z,1003.28
2019-02-16T01:45:17.069Z,1003.24
2019-02-16T01:46:17.287Z,1003.28
2019-02-16T01:47:17.508Z,1003.25
2019-02-16T01:48:17.726Z,1003.26
2019-02-16T01:49:17.945Z,1003.22
2019-02-16T01:50:18.161Z,1003.28
2019-02-16T01:51:18.381Z,1003.22
2019-02-16T01:52:18.601Z,1003.23
2019-02-16T01:53:18.820Z,1003.19
2019-02-16T01:54:19.040Z,1003.19
2019-02-16T01:55:19.260Z,1003.17
2019-02-16T01:56:19.479Z,1003.18
2019-02-16T01:57:19.701Z,1003.17
2019-02-16T01:58:19.916Z,1003.16
2019-02-16T01:59:20.133Z,1003.16
2019-02-16T02:00:20.352Z,1003.10
2019-02-16T02:01:20.561Z,1003.13
2019-02-16T02:02:20.781Z,1003.12
2019-02-16T02:03:21.004Z,1003.11
2019-02-16T02:04:21.228Z,1003.13
2019-02-16T02:05:21.444Z,1003.13
2019-02-16T02:06:21.665Z,1003.13
2019-02-16T02:07:21.884Z,1003.14
2019-02-16T02:08:22.103Z,1003.12
2019-02-16T02:09:22.321Z,1003.15
2019-02-16T02:10:22.558Z,1003.12
2019-02-16T02:11:22.757Z,1003.08
2019-02-16T02:12:22.977Z,1003.12
2019-02-16T02:13:23.205Z,1003.09
2019-02-16T02:14:23.414Z,1003.09
2019-02-16T02:15:23.628Z,1003.10
2019-02-16T02:16:23.848Z,1003.06
2019-02-16T02:17:24.072Z,1003.09
2019-02-16T02:18:24.286Z,1003.03
2019-02-16T02:19:24.506Z,1003.02
2019-02-16T02:20:24.727Z,1003.02
2019-02-16T02:21:24.942Z,1003.06
2019-02-16T02:22:25.162Z,1003.07
2019-02-16T02:23:25.380Z,1003.02
2019-02-16T02:24:25.598Z,1003.03
2019-02-16T02:25:25.823Z,1003.03
2019-02-16T02:26:26.037Z,1003.00
2019-02-16T02:27:26.251Z,1002.99
2019-02-16T02:28:26.473Z,1003.00
2019-02-16T02:29:26.691Z,1002.99
2019-02-16T02:30:26.909Z,1002.98
2019-02-16T02:31:27.146Z,1003.02
2019-02-16T02:32:27.340Z,1002.98
2019-02-16T02:33:27.559Z,1002.98
2019-02-16T02:34:27.787Z,1002.96
2019-02-16T02:35:28.003Z,1002.99
2019-02-16T02:36:28.224Z,1002.96
2019-02-16T02:37:28.462Z,1002.99
2019-02-16T02:38:28.648Z,1002.95
2019-02-16T02:39:28.864Z,1002.94
2019-02-16T02:40:29.085Z,1002.94
2019-02-16T02:41:29.305Z,1002.90
2019-02-16T02:42:29.524Z,1002.91
2019-02-16T02:43:29.741Z,1002.89
2019-02-16T02:44:29.958Z,1002.93
2019-02-16T02:45:30.172Z,1002.88
2019-02-16T02:46:30.384Z,1002.96
2019-02-16T02:47:30.599Z,1002.91
2019-02-16T02:48:30.815Z,1002.92
2019-02-16T02:49:31.033Z,1002.94
2019-02-16T02:50:31.263Z,1002.93
2019-02-16T02:51:31.481Z,1002.94
2019-02-16T02:52:31.681Z,1002.94
2019-02-16T02:53:31.940Z,1002.94
2019-02-16T02:54:32.129Z,1002.92
2019-02-16T02:55:32.349Z,1002.92
2019-02-16T02:56:32.617Z,1002.85
2019-02-16T02:57:32.788Z,1002.87
2019-02-16T02:58:33.029Z,1002.90
2019-02-16T02:59:33.225Z,1002.91
2019-02-16T03:00:33.447Z,1002.92
2019-02-16T03:01:33.660Z,1002.90
2019-02-16T03:02:33.882Z,1002.91
2019-02-16T03:03:34.100Z,1002.91
2019-02-16T03:04:34.325Z,1002.90
2019-02-16T03:05:34.547Z,1002.85
2019-02-16T03:06:34.767Z,1002.89
2019-02-16T03:07:34.995Z,1002.87
2019-02-16T03:08:35.206Z,1002.88
2019-02-16T03:09:35.413Z,1002.93
2019-02-16T03:10:35.730Z,1002.89
2019-02-16T03:11:35.849Z,1002.91
2019-02-16T03:12:36.075Z,1002.89
2019-02-16T03:13:36.291Z,1002.88
2019-02-16T03:14:36.543Z,1002.88
2019-02-16T03:15:36.780Z,1002.89
2019-02-16T03:16:36.997Z,1002.85
2019-02-16T03:17:37.218Z,1002.88
2019-02-16T03:18:37.430Z,1002.82
2019-02-16T03:19:37.660Z,1002.87
2019-02-16T03:20:37.869Z,1002.89
2019-02-16T03:21:38.084Z,1002.83
2019-02-16T03:22:38.302Z,1002.87
2019-02-16T03:23:38.525Z,1002.86
2019-02-16T03:24:38.752Z,1002.85
2019-02-16T03:25:38.963Z,1002.82
2019-02-16T03:26:39.194Z,1002.83
2019-02-16T03:27:39.402Z,1002.83
2019-02-16T03:28:39.626Z,1002.78
2019-02-16T03:29:39.866Z,1002.81
2019-02-16T03:30:40.065Z,1002.86
2019-02-16T03:31:40.301Z,1002.82
2019-02-16T03:32:40.503Z,1002.84
2019-02-16T03:33:40.737Z,1002.81
2019-02-16T03:34:40.937Z,1002.82
2019-02-16T03:35:41.156Z,1002.79
2019-02-16T03:36:41.377Z,1002.80
2019-02-16T03:37:41.592Z,1002.79
2019-02-16T03:38:41.817Z,1002.74
2019-02-16T03:39:42.027Z,1002.75
2019-02-16T03:40:42.256Z,1002.73
2019-02-16T03:41:42.456Z,1002.70
2019-02-16T03:42:42.681Z,1002.72
2019-02-16T03:43:42.902Z,1002.70
2019-02-16T03:44:43.126Z,1002.70
2019-02-16T03:45:43.343Z,1002.68
2019-02-16T03:46:43.561Z,1002.69
2019-02-16T03:47:43.778Z,1002.68
2019-02-16T03:48:44.004Z,1002.68
2019-02-16T03:49:44.207Z,1002.69
2019-02-16T03:50:44.428Z,1002.65
2019-02-16T03:51:44.655Z,1002.65
2019-02-16T03:52:44.866Z,1002.67
2019-02-16T03:53:45.085Z,1002.66
2019-02-16T03:54:45.351Z,1002.64
2019-02-16T03:55:45.542Z,1002.64
2019-02-16T03:56:45.765Z,1002.64
2019-02-16T03:57:45.992Z,1002.63
2019-02-16T03:58:46.205Z,1002.62
2019-02-16T03:59:46.426Z,1002.63
2019-02-16T04:00:46.643Z,1002.60
2019-02-16T04:01:47.193Z,1002.62
2019-02-16T04:02:47.089Z,1002.64
2019-02-16T04:03:47.309Z,1002.57
2019-02-16T04:04:47.515Z,1002.58
2019-02-16T04:05:47.736Z,1002.64
2019-02-16T04:06:48.081Z,1002.62
2019-02-16T04:07:48.174Z,1002.57
2019-02-16T04:08:48.538Z,1002.60
2019-02-16T04:09:48.614Z,1002.61
2019-02-16T04:10:48.825Z,1002.60
2019-02-16T04:11:49.049Z,1002.56
2019-02-16T04:12:49.266Z,1002.54
2019-02-16T04:13:49.489Z,1002.56
2019-02-16T04:14:49.706Z,1002.54
2019-02-16T04:15:49.927Z,1002.55
2019-02-16T04:16:50.140Z,1002.56
2019-02-16T04:17:50.359Z,1002.53
2019-02-16T04:18:50.577Z,1002.52
2019-02-16T04:19:50.800Z,1002.53
2019-02-16T04:20:51.021Z,1002.56
2019-02-16T04:21:51.250Z,1002.58
2019-02-16T04:22:51.471Z,1002.54
2019-02-16T04:23:51.692Z,1002.51
2019-02-16T04:24:51.921Z,1002.50
2019-02-16T04:25:52.135Z,1002.51
2019-02-16T04:26:52.348Z,1002.45
2019-02-16T04:27:52.566Z,1002.48
2019-02-16T04:28:52.805Z,1002.44
2019-02-16T04:29:53.001Z,1002.42
2019-02-16T04:30:53.215Z,1002.41
2019-02-16T04:31:53.435Z,1002.42
2019-02-16T04:32:53.657Z,1002.45
2019-02-16T04:33:53.877Z,1002.42
2019-02-16T04:34:54.094Z,1002.40
2019-02-16T04:35:54.315Z,1002.42
2019-02-16T04:36:54.533Z,1002.40
2019-02-16T04:37:54.746Z,1002.46
2019-02-16T04:38:54.971Z,1002.38
2019-02-16T04:39:55.191Z,1002.44
2019-02-16T04:40:55.410Z,1002.40
2019-02-16T04:41:55.626Z,1002.41
2019-02-16T04:42:55.843Z,1002.40
2019-02-16T04:43:56.063Z,1002.44
2019-02-16T04:44:56.282Z,1002.42
2019-02-16T04:45:56.500Z,1002.40
2019-02-16T04:46:56.713Z,1002.38
2019-02-16T04:47:56.939Z,1002.44
2019-02-16T04:48:57.157Z,1002.43
2019-02-16T04:49:57.396Z,1002.46
2019-02-16T04:50:57.677Z,1002.40
2019-02-16T04:51:57.887Z,1002.45
2019-02-16T04:52:58.101Z,1002.47
2019-02-16T04:53:58.323Z,1002.46
2019-02-16T04:54:58.539Z,1002.48
2019-02-16T04:55:58.761Z,1002.48
2019-02-16T04:56:58.974Z,1002.50
2019-02-16T04:57:59.190Z,1002.50
2019-02-16T04:58:59.413Z,1002.47
2019-02-16T04:59:59.629Z,1002.52
2019-02-16T05:00:59.846Z,1002.46
2019-02-16T05:02:00.063Z,1002.47
2019-02-16T05:03:00.283Z,1002.50
2019-02-16T05:04:00.498Z,1002.48
2019-02-16T05:05:00.713Z,1002.49
2019-02-16T05:06:00.937Z,1002.48
2019-02-16T05:07:01.165Z,1002.47
2019-02-16T05:08:01.383Z,1002.49
2019-02-16T05:09:01.603Z,1002.50
2019-02-16T05:10:01.852Z,1002.50
2019-02-16T05:11:02.029Z,1002.50
2019-02-16T05:12:02.258Z,1002.55
2019-02-16T05:13:02.471Z,1002.53
2019-02-16T05:14:02.689Z,1002.49
2019-02-16T05:15:02.910Z,1002.58
2019-02-16T05:16:03.171Z,1002.54
2019-02-16T05:17:03.344Z,1002.55
2019-02-16T05:18:03.565Z,1002.55
2019-02-16T05:19:03.785Z,1002.53
2019-02-16T05:20:04.002Z,1002.48
2019-02-16T05:21:04.225Z,1002.48
2019-02-16T05:22:04.446Z,1002.47
2019-02-16T05:23:04.661Z,1002.48
2019-02-16T05:24:04.877Z,1002.49
2019-02-16T05:25:05.097Z,1002.47
2019-02-16T05:26:05.316Z,1002.42
2019-02-16T05:27:05.538Z,1002.45
2019-02-16T05:28:05.764Z,1002.49
2019-02-16T05:29:05.976Z,1002.48
2019-02-16T05:30:06.194Z,1002.48
2019-02-16T05:31:06.407Z,1002.50
2019-02-16T05:32:06.624Z,1002.49
2019-02-16T05:33:06.838Z,1002.47
2019-02-16T05:34:07.060Z,1002.48
2019-02-16T05:35:07.280Z,1002.48
2019-02-16T05:36:07.498Z,1002.46
2019-02-16T05:37:07.717Z,1002.42
2019-02-16T05:38:07.934Z,1002.45
2019-02-16T05:39:08.155Z,1002.46
2019-02-16T05:40:08.371Z,1002.45
2019-02-16T05:41:08.591Z,1002.43
2019-02-16T05:42:08.810Z,1002.43
2019-02-16T05:43:09.029Z,1002.42
2019-02-16T05:44:09.250Z,1002.44
2019-02-16T05:45:09.466Z,1002.43
2019-02-16T05:46:09.688Z,1002.42
2019-02-16T05:47:09.902Z,1002.47
2019-02-16T05:48:10.122Z,1002.42
2019-02-16T05:49:10.339Z,1002.45
2019-02-16T05:50:10.557Z,1002.45
2019-02-16T05:51:10.779Z,1002.41
2019-02-16T05:52:10.992Z,1002.37
2019-02-16T05:53:11.213Z,1002.38
2019-02-16T05:54:11.432Z,1002.40
2019-02-16T05:55:11.666Z,1002.39
2019-02-16T05:56:11.868Z,1002.41
2019-02-16T05:57:12.085Z,1002.43
2019-02-16T05:58:12.318Z,1002.43
2019-02-16T05:59:12.523Z,1002.40
2019-02-16T06:00:12.747Z,1002.42
2019-02-16T06:01:12.956Z,1002.40
2019-02-16T06:02:13.183Z,1002.45
2019-02-16T06:03:13.393Z,1002.46
2019-02-16T06:04:13.632Z,1002.43
2019-02-16T06:05:13.826Z,1002.43
2019-02-16T06:06:14.047Z,1002.47
2019-02-16T06:07:14.269Z,1002.50
2019-02-16T06:08:14.488Z,1002.52
2019-02-16T06:09:14.706Z,1002.57
2019-02-16T06:10:14.933Z,1002.55
2019-02-16T06:11:15.145Z,1002.56
2019-02-16T06:12:15.366Z,1002.57
2019-02-16T06:13:15.586Z,1002.57
2019-02-16T06:14:15.804Z,1002.57
2019-02-16T06:15:16.024Z,1002.64
2019-02-16T06:16:16.241Z,1002.59
2019-02-16T06:17:16.462Z,1002.59
2019-02-16T06:18:16.680Z,1002.61
2019-02-16T06:19:16.898Z,1002.64
2019-02-16T06:20:17.114Z,1002.59
2019-02-16T06:21:17.352Z,1002.62
2019-02-16T06:22:17.550Z,1002.60
2019-02-16T06:23:17.769Z,1002.62
2019-02-16T06:24:17.989Z,1002.64
2019-02-16T06:25:18.218Z,1002.62
2019-02-16T06:26:18.429Z,1002.66
2019-02-16T06:27:18.648Z,1002.65
2019-02-16T06:28:18.868Z,1002.64
2019-02-16T06:29:19.083Z,1002.64
2019-02-16T06:30:19.300Z,1002.63
2019-02-16T06:31:19.517Z,1002.66
2019-02-16T06:32:19.734Z,1002.65
2019-02-16T06:33:19.968Z,1002.69
2019-02-16T06:34:20.182Z,1002.70
2019-02-16T06:35:20.393Z,1002.67
2019-02-16T06:36:20.617Z,1002.66
2019-02-16T06:37:20.829Z,1002.68
2019-02-16T06:38:21.050Z,1002.70
2019-02-16T06:39:21.271Z,1002.66
2019-02-16T06:40:21.488Z,1002.68
2019-02-16T06:41:21.709Z,1002.63
2019-02-16T06:42:21.924Z,1002.64
2019-02-16T06:43:22.143Z,1002.62
2019-02-16T06:44:22.365Z,1002.62
2019-02-16T06:45:22.580Z,1002.59
2019-02-16T06:46:22.795Z,1002.56
2019-02-16T06:47:23.013Z,1002.52
2019-02-16T06:48:23.235Z,1002.53
2019-02-16T06:49:23.449Z,1002.47
2019-02-16T06:50:23.671Z,1002.40
2019-02-16T06:51:23.886Z,1002.35
2019-02-16T06:52:24.106Z,1002.36
2019-02-16T06:53:24.326Z,1002.48
2019-02-16T06:54:24.544Z,1002.57
2019-02-16T06:55:24.763Z,1002.65
2019-02-16T06:56:24.984Z,1002.65
2019-02-16T06:57:25.204Z,1002.60
2019-02-16T06:58:25.417Z,1002.54
2019-02-16T06:59:25.634Z,1002.48
2019-02-16T07:00:25.854Z,1002.51
2019-02-16T07:01:26.073Z,1002.52
2019-02-16T07:02:26.293Z,1002.52
2019-02-16T07:03:26.512Z,1002.55
2019-02-16T07:04:26.729Z,1002.60
2019-02-16T07:05:26.942Z,1002.63
2019-02-16T07:06:27.161Z,1002.64
2019-02-16T07:07:27.379Z,1002.64
2019-02-16T07:08:27.599Z,1002.67
2019-02-16T07:09:27.819Z,1002.65
2019-02-16T07:10:28.036Z,1002.63
2019-02-16T07:11:28.281Z,1002.65
2019-02-16T07:12:28.472Z,1002.67
2019-02-16T07:13:28.693Z,1002.63
2019-02-16T07:14:28.913Z,1002.63
2019-02-16T07:15:29.133Z,1002.60
2019-02-16T07:16:29.353Z,1002.65
2019-02-16T07:17:29.572Z,1002.60
2019-02-16T07:18:29.791Z,1002.61
2019-02-16T07:19:30.013Z,1002.63
2019-02-16T07:20:30.230Z,1002.61
2019-02-16T07:21:30.449Z,1002.54
2019-02-16T07:22:30.673Z,1002.53
2019-02-16T07:23:30.894Z,1002.53
2019-02-16T07:24:31.119Z,1002.54
2019-02-16T07:25:31.332Z,1002.56
2019-02-16T07:26:31.553Z,1002.55
2019-02-16T07:27:31.771Z,1002.56
2019-02-16T07:28:31.991Z,1002.55
2019-02-16T07:29:32.212Z,1002.52
2019-02-16T07:30:32.432Z,1002.48
2019-02-16T07:31:32.654Z,1002.52
2019-02-16T07:32:32.870Z,1002.52
2019-02-16T07:33:33.091Z,1002.56
2019-02-16T07:34:33.313Z,1002.55
2019-02-16T07:35:33.534Z,1002.58
2019-02-16T07:36:33.748Z,1002.58
2019-02-16T07:37:33.969Z,1002.57
2019-02-16T07:38:34.187Z,1002.63
2019-02-16T07:39:34.404Z,1002.59
2019-02-16T07:40:34.620Z,1002.61
2019-02-16T07:41:34.844Z,1002.61
2019-02-16T07:42:35.064Z,1002.66
2019-02-16T07:43:35.285Z,1002.63
2019-02-16T07:44:35.502Z,1002.60
2019-02-16T07:45:35.720Z,1002.54
2019-02-16T07:46:35.941Z,1002.53
2019-02-16T07:47:36.161Z,1002.52
2019-02-16T07:48:36.378Z,1002.51
2019-02-16T07:49:36.601Z,1002.47
2019-02-16T07:50:36.819Z,1002.49
2019-02-16T07:51:37.040Z,1002.48
2019-02-16T07:52:37.262Z,1002.51
2019-02-16T07:53:37.485Z,1002.53
2019-02-16T07:54:37.698Z,1002.50
2019-02-16T07:55:37.928Z,1002.49
2019-02-16T07:56:38.144Z,1002.47
2019-02-16T07:57:38.363Z,1002.45
2019-02-16T07:58:38.589Z,1002.44
2019-02-16T07:59:38.805Z,1002.44
2019-02-16T08:00:39.025Z,1002.47
2019-02-16T08:01:39.248Z,1002.43
2019-02-16T08:02:39.468Z,1002.40
2019-02-16T08:03:39.695Z,1002.42
2019-02-16T08:04:39.906Z,1002.39
2019-02-16T08:05:40.126Z,1002.40
2019-02-16T08:06:40.345Z,1002.40
2019-02-16T08:07:40.566Z,1002.41
2019-02-16T08:08:40.785Z,1002.41
2019-02-16T08:09:41.007Z,1002.40
2019-02-16T08:10:41.231Z,1002.43
2019-02-16T08:11:41.449Z,1002.48
2019-02-16T08:12:41.672Z,1002.50
2019-02-16T08:13:41.898Z,1002.55
2019-02-16T08:14:42.113Z,1002.56
2019-02-16T08:15:42.328Z,1002.58
2019-02-16T08:16:42.547Z,1002.58
2019-02-16T08:17:42.766Z,1002.58
2019-02-16T08:18:42.992Z,1002.61
2019-02-16T08:19:43.195Z,1002.61
2019-02-16T08:20:44.251Z,1002.64
2019-02-16T08:21:43.698Z,1002.67
2019-02-16T08:22:43.922Z,1002.68
2019-02-16T08:23:44.139Z,1002.64
2019-02-16T08:24:44.358Z,1002.65
2019-02-16T08:25:44.580Z,1002.64
2019-02-16T08:26:44.798Z,1002.63
2019-02-16T08:27:45.020Z,1002.59
2019-02-16T08:28:45.242Z,1002.60
2019-02-16T08:29:45.477Z,1002.58
2019-02-16T08:30:45.683Z,1002.61
2019-02-16T08:31:45.915Z,1002.57
2019-02-16T08:32:46.123Z,1002.63
2019-02-16T08:33:46.350Z,1002.65
2019-02-16T08:34:46.570Z,1002.59
2019-02-16T08:35:46.791Z,1002.59
2019-02-16T08:36:47.013Z,1002.59
2019-02-16T08:37:47.231Z,1002.54
2019-02-16T08:38:47.454Z,1002.57
2019-02-16T08:39:47.673Z,1002.58
2019-02-16T08:40:47.896Z,1002.55
2019-02-16T08:41:48.118Z,1002.50
2019-02-16T08:42:48.337Z,1002.52
2019-02-16T08:43:48.557Z,1002.47
2019-02-16T08:44:48.781Z,1002.48
2019-02-16T08:45:49.004Z,1002.48
2019-02-16T08:46:49.221Z,1002.48
2019-02-16T08:47:49.441Z,1002.45
2019-02-16T08:48:49.665Z,1002.45
2019-02-16T08:49:49.890Z,1002.43
2019-02-16T08:50:50.109Z,1002.41
2019-02-16T08:51:50.332Z,1002.39
2019-02-16T08:52:50.597Z,1002.34
2019-02-16T08:53:50.767Z,1002.36
2019-02-16T08:54:50.991Z,1002.31
2019-02-16T08:55:51.203Z,1002.33
2019-02-16T08:56:51.426Z,1002.27
2019-02-16T08:57:51.647Z,1002.26
2019-02-16T08:58:51.862Z,1002.20
2019-02-16T08:59:52.083Z,1002.22
2019-02-16T09:00:52.304Z,1002.23
2019-02-16T09:01:52.527Z,1002.25
2019-02-16T09:02:52.750Z,1002.24
2019-02-16T09:03:52.970Z,1002.24
2019-02-16T09:04:53.191Z,1002.21
2019-02-16T09:05:53.411Z,1002.22
2019-02-16T09:06:53.630Z,1002.18
2019-02-16T09:07:53.853Z,1002.16
2019-02-16T09:08:54.080Z,1002.18
2019-02-16T09:09:54.301Z,1002.12
2019-02-16T09:10:54.523Z,1002.10
2019-02-16T09:11:54.747Z,1002.07
2019-02-16T09:12:54.968Z,1002.04
2019-02-16T09:13:55.194Z,1002.12
2019-02-16T09:14:55.414Z,1002.08
2019-02-16T09:15:55.640Z,1002.10
2019-02-16T09:16:55.858Z,1002.09
2019-02-16T09:17:56.081Z,1002.07
2019-02-16T09:18:56.303Z,1002.08
2019-02-16T09:19:56.522Z,1002.10
2019-02-16T09:20:56.742Z,1002.08
2019-02-16T09:21:56.972Z,1002.06
2019-02-16T09:22:57.196Z,1002.05
2019-02-16T09:23:59.428Z,1002.04
2019-02-16T09:24:57.641Z,1002.02
2019-02-16T09:25:57.865Z,1002.06
2019-02-16T09:26:58.089Z,1002.01
2019-02-16T09:27:58.311Z,1002.01
2019-02-16T09:28:58.538Z,1001.98
2019-02-16T09:29:58.761Z,1001.98
2019-02-16T09:30:58.983Z,1001.99
2019-02-16T09:31:59.205Z,1002.00
2019-02-16T09:32:59.426Z,1002.03
2019-02-16T09:33:59.650Z,1002.01
2019-02-16T09:34:59.870Z,1002.02
2019-02-16T09:36:00.092Z,1001.98
2019-02-16T09:37:00.316Z,1001.98
2019-02-16T09:38:00.534Z,1001.98
2019-02-16T09:39:00.783Z,1001.95
2019-02-16T09:40:01.065Z,1001.92
2019-02-16T09:41:01.214Z,1001.96
2019-02-16T09:42:01.435Z,1001.90
2019-02-16T09:43:01.787Z,1001.90
2019-02-16T09:44:01.879Z,1001.91
2019-02-16T09:45:02.101Z,1001.99
2019-02-16T09:46:02.317Z,1001.97
2019-02-16T09:47:02.545Z,1001.93
2019-02-16T09:48:02.769Z,1002.00
2019-02-16T09:49:02.991Z,1002.02
2019-02-16T09:50:03.213Z,1002.01
2019-02-16T09:51:03.437Z,1001.99
2019-02-16T09:52:03.666Z,1002.00
2019-02-16T09:53:03.879Z,1002.02
2019-02-16T09:54:08.302Z,1002.03
2019-02-16T09:55:04.323Z,1002.04
2019-02-16T09:56:04.546Z,1002.03
2019-02-16T09:57:04.773Z,1002.04
2019-02-16T09:58:04.996Z,1002.05
2019-02-16T09:59:05.215Z,1002.07
2019-02-16T10:00:05.443Z,1002.06
2019-02-16T10:01:05.667Z,1002.08
2019-02-16T10:02:05.893Z,1002.08
2019-02-16T10:03:06.113Z,1002.03
2019-02-16T10:04:06.339Z,1002.04
2019-02-16T10:05:06.561Z,1002.03
2019-02-16T10:06:06.783Z,1002.02
2019-02-16T10:07:07.007Z,1002.04
2019-02-16T10:08:07.230Z,1001.97
2019-02-16T10:09:07.453Z,1002.01
2019-02-16T10:10:07.676Z,1001.99
2019-02-16T10:11:07.902Z,1001.99
2019-02-16T10:12:08.126Z,1001.98
2019-02-16T10:13:08.350Z,1001.96
2019-02-16T10:14:08.573Z,1001.98
2019-02-16T10:15:08.796Z,1001.98
2019-02-16T10:16:09.019Z,1001.99
2019-02-16T10:17:10.046Z,1002.00
2019-02-16T10:18:09.471Z,1002.03
2019-02-16T10:19:09.695Z,1002.02
2019-02-16T10:20:09.918Z,1002.00
2019-02-16T10:21:10.147Z,1002.02
2019-02-16T10:22:10.372Z,1002.04
2019-02-16T10:23:10.596Z,1002.00
2019-02-16T10:24:17.673Z,1001.99
2019-02-16T10:25:11.047Z,1002.04
2019-02-16T10:26:11.275Z,1002.04
2019-02-16T10:27:11.495Z,1002.03
2019-02-16T10:28:11.728Z,1002.00
2019-02-16T10:29:11.947Z,1001.99
2019-02-16T10:30:12.172Z,1001.96
2019-02-16T10:31:12.399Z,1002.05
2019-02-16T10:32:12.624Z,1002.03
2019-02-16T10:33:12.850Z,1002.08
2019-02-16T10:34:13.081Z,1002.05
2019-02-16T10:35:13.294Z,1002.10
2019-02-16T10:36:13.518Z,1002.13
2019-02-16T10:37:13.746Z,1002.16
2019-02-16T10:38:13.968Z,1002.14
2019-02-16T10:39:14.196Z,1002.12
2019-02-16T10:40:14.416Z,1002.14
2019-02-16T10:41:14.640Z,1002.13
2019-02-16T10:42:14.865Z,1002.10
2019-02-16T10:43:15.091Z,1002.11
2019-02-16T10:44:15.315Z,1002.09
2019-02-16T10:45:15.539Z,1002.05
2019-02-16T10:46:15.763Z,1002.04
2019-02-16T10:47:15.991Z,1001.99
2019-02-16T10:48:16.215Z,1002.01
2019-02-16T10:49:16.438Z,1002.00
2019-02-16T10:50:16.662Z,1002.01
2019-02-16T10:51:16.885Z,1002.06
2019-02-16T10:52:17.100Z,1002.04
2019-02-16T10:53:17.327Z,1002.00
2019-02-16T10:54:26.564Z,1002.01
2019-02-16T10:55:17.777Z,1002.00
2019-02-16T10:56:18.002Z,1001.92
2019-02-16T10:57:18.230Z,1001.93
2019-02-16T10:58:18.454Z,1001.94
2019-02-16T10:59:18.827Z,1001.91
2019-02-16T11:00:18.906Z,1001.91
2019-02-16T11:01:19.135Z,1001.90
2019-02-16T11:02:19.360Z,1001.89
2019-02-16T11:03:19.582Z,1001.90
2019-02-16T11:04:19.807Z,1001.87
2019-02-16T11:05:20.031Z,1001.84
2019-02-16T11:06:20.256Z,1001.86
2019-02-16T11:07:20.483Z,1001.78
2019-02-16T11:08:20.709Z,1001.77
2019-02-16T11:09:20.934Z,1001.78
2019-02-16T11:10:21.162Z,1001.76
2019-02-16T11:11:21.387Z,1001.76
2019-02-16T11:12:21.615Z,1001.77
2019-02-16T11:13:21.840Z,1001.75
2019-02-16T11:14:22.073Z,1001.76
2019-02-16T11:15:22.285Z,1001.79
2019-02-16T11:16:22.514Z,1001.75
2019-02-16T11:17:22.736Z,1001.76
2019-02-16T11:18:22.960Z,1001.78
2019-02-16T11:19:23.190Z,1001.75
2019-02-16T11:20:23.411Z,1001.79
2019-02-16T11:21:23.636Z,1001.79
2019-02-16T11:22:23.862Z,1001.71
2019-02-16T11:23:24.084Z,1001.71
2019-02-16T11:24:24.309Z,1001.71
2019-02-16T11:25:24.536Z,1001.69
2019-02-16T11:26:24.761Z,1001.70
2019-02-16T11:27:24.986Z,1001.69
2019-02-16T11:28:25.212Z,1001.67
2019-02-16T11:29:25.437Z,1001.63
2019-02-16T11:30:25.664Z,1001.59
2019-02-16T11:31:25.890Z,1001.58
2019-02-16T11:32:26.113Z,1001.59
2019-02-16T11:33:26.342Z,1001.56
2019-02-16T11:34:26.565Z,1001.58
2019-02-16T11:35:26.795Z,1001.56
2019-02-16T11:36:27.019Z,1001.56
2019-02-16T11:37:27.244Z,1001.54
2019-02-16T11:38:27.469Z,1001.56
2019-02-16T11:39:27.699Z,1001.53
2019-02-16T11:40:27.921Z,1001.50
2019-02-16T11:41:28.147Z,1001.48
2019-02-16T11:42:28.377Z,1001.45
2019-02-16T11:43:28.608Z,1001.48
2019-02-16T11:44:28.823Z,1001.45
2019-02-16T11:45:29.046Z,1001.43
2019-02-16T11:46:29.273Z,1001.45
2019-02-16T11:47:29.500Z,1001.44
2019-02-16T11:48:29.723Z,1001.40
2019-02-16T11:49:29.949Z,1001.43
2019-02-16T11:50:30.178Z,1001.42
2019-02-16T11:51:30.399Z,1001.41
2019-02-16T11:52:30.622Z,1001.38
2019-02-16T11:53:30.853Z,1001.35
2019-02-16T11:54:31.077Z,1001.41
2019-02-16T11:55:31.303Z,1001.37
2019-02-16T11:56:31.530Z,1001.36
2019-02-16T11:57:31.768Z,1001.36
2019-02-16T11:58:31.984Z,1001.35
2019-02-16T11:59:32.206Z,1001.36
2019-02-16T12:00:32.433Z,1001.36
2019-02-16T12:01:32.658Z,1001.33
2019-02-16T12:02:39.409Z,1001.34
2019-02-16T12:03:33.108Z,1001.34
2019-02-16T12:04:33.335Z,1001.34
2019-02-16T12:05:33.564Z,1001.36
2019-02-16T12:06:33.788Z,1001.33
2019-02-16T12:07:34.015Z,1001.29
2019-02-16T12:08:34.243Z,1001.30